createdAt,value
2022-10-06T00:00:49.194Z,8.91
2022-10-06T00:03:17.136Z,8.98
2022-10-06T00:05:45.161Z,9.02
2022-10-06T00:08:14.360Z,8.99
2022-10-06T00:10:42.167Z,9.04
2022-10-06T00:13:10.446Z,9.04
2022-10-06T00:15:38.541Z,9.16
2022-10-06T00:18:06.484Z,9.17
2022-10-06T00:20:34.320Z,9.08
2022-10-06T00:23:02.139Z,8.90
2022-10-06T00:25:31.366Z,8.91
2022-10-06T00:27:59.216Z,8.54
2022-10-06T00:30:28.791Z,8.93
2022-10-06T00:32:59.240Z,8.77
2022-10-06T00:35:28.749Z,8.85
2022-10-06T00:37:56.769Z,8.50
2022-10-06T00:40:24.804Z,9.06
2022-10-06T00:42:56.996Z,8.97
2022-10-06T00:45:30.195Z,8.82
2022-10-06T00:48:04.252Z,8.73
2022-10-06T00:50:33.125Z,8.67
2022-10-06T00:53:01.332Z,8.63
2022-10-06T00:55:29.172Z,8.57
2022-10-06T00:57:59.496Z,8.54
2022-10-06T01:00:28.554Z,8.43
2022-10-06T01:03:00.323Z,8.51
2022-10-06T01:05:32.102Z,8.45
2022-10-06T01:08:00.502Z,8.11
2022-10-06T01:10:28.461Z,8.40
2022-10-06T01:12:57.207Z,8.35
2022-10-06T01:15:28.642Z,7.98
2022-10-06T01:18:02.209Z,8.37
2022-10-06T01:20:30.569Z,7.99
2022-10-06T01:23:05.055Z,8.10
2022-10-06T01:25:35.352Z,7.99
2022-10-06T01:28:04.899Z,7.90
2022-10-06T01:30:37.596Z,8.27
2022-10-06T01:33:05.639Z,8.44
2022-10-06T01:35:33.465Z,8.35
2022-10-06T01:38:02.724Z,8.33
2022-10-06T01:40:30.546Z,8.34
2022-10-06T01:42:58.480Z,8.27
2022-10-06T01:45:26.300Z,8.03
2022-10-06T01:47:54.123Z,7.73
2022-10-06T01:50:21.939Z,8.14
2022-10-06T01:52:49.764Z,8.15
2022-10-06T01:55:19.474Z,8.21
2022-10-06T01:57:47.329Z,7.99
2022-10-06T02:00:15.452Z,7.87
2022-10-06T02:02:43.630Z,7.66
2022-10-06T02:05:12.130Z,7.89
2022-10-06T02:07:40.121Z,7.65
2022-10-06T02:10:08.813Z,7.37
2022-10-06T02:12:38.060Z,7.40
2022-10-06T02:15:07.132Z,7.35
2022-10-06T02:17:34.956Z,7.26
2022-10-06T02:20:02.805Z,7.28
2022-10-06T02:22:31.301Z,7.03
2022-10-06T02:24:59.168Z,7.27
2022-10-06T02:27:26.978Z,7.38
2022-10-06T02:29:56.175Z,7.46
2022-10-06T02:32:24.134Z,7.58
2022-10-06T02:34:51.935Z,7.62
2022-10-06T02:37:19.778Z,7.64
2022-10-06T02:39:47.594Z,7.57
2022-10-06T02:42:15.388Z,7.50
2022-10-06T02:44:43.429Z,7.46
2022-10-06T02:47:14.524Z,7.55
2022-10-06T02:49:42.374Z,7.48
2022-10-06T02:52:11.135Z,7.30
2022-10-06T02:54:38.988Z,7.38
2022-10-06T02:57:06.836Z,7.25
2022-10-06T02:59:35.956Z,7.16
2022-10-06T03:02:03.942Z,7.11
2022-10-06T03:04:33.197Z,7.29
2022-10-06T03:07:01.011Z,7.42
2022-10-06T03:09:28.858Z,7.34
2022-10-06T03:11:56.733Z,7.38
2022-10-06T03:14:24.799Z,7.43
2022-10-06T03:16:52.715Z,7.47
2022-10-06T03:19:20.531Z,7.34
2022-10-06T03:21:49.930Z,7.37
2022-10-06T03:24:18.304Z,7.23
2022-10-06T03:26:48.223Z,7.15
2022-10-06T03:29:16.790Z,7.23
2022-10-06T03:31:44.713Z,7.25
2022-10-06T03:34:13.552Z,7.11
2022-10-06T03:36:41.437Z,7.22
2022-10-06T03:39:10.672Z,7.25
2022-10-06T03:41:39.494Z,6.92
2022-10-06T03:44:07.399Z,7.04
2022-10-06T03:46:37.462Z,6.70
2022-10-06T03:49:05.763Z,6.68
2022-10-06T03:51:35.184Z,6.87
2022-10-06T03:54:03.114Z,6.89
2022-10-06T03:56:34.414Z,6.83
2022-10-06T03:59:03.584Z,6.76
2022-10-06T04:01:33.323Z,6.72
2022-10-06T04:04:02.632Z,6.72
2022-10-06T04:06:32.420Z,6.68
2022-10-06T04:09:00.993Z,6.45
2022-10-06T04:11:30.654Z,6.66
2022-10-06T04:14:01.708Z,6.64
2022-10-06T04:16:31.401Z,6.50
2022-10-06T04:19:00.897Z,6.56
2022-10-06T04:21:30.929Z,6.56
2022-10-06T04:24:00.709Z,6.55
2022-10-06T04:26:31.577Z,6.50
2022-10-06T04:29:01.706Z,6.43
2022-10-06T04:31:31.618Z,6.13
2022-10-06T04:34:00.876Z,6.44
2022-10-06T04:36:30.971Z,6.27
2022-10-06T04:39:00.203Z,6.79
2022-10-06T04:41:30.201Z,7.11
2022-10-06T04:43:58.033Z,7.18
2022-10-06T04:46:42.742Z,7.38
2022-10-06T04:49:16.215Z,7.72
2022-10-06T04:51:47.317Z,7.76
2022-10-06T04:54:15.403Z,7.72
2022-10-06T04:56:43.281Z,7.38
2022-10-06T04:59:11.311Z,7.49
2022-10-06T05:01:40.490Z,7.63
2022-10-06T05:04:08.471Z,7.70
2022-10-06T05:06:37.967Z,7.86
2022-10-06T05:09:07.814Z,8.07
2022-10-06T05:11:35.984Z,7.50
2022-10-06T05:14:03.824Z,8.33
2022-10-06T05:16:32.540Z,8.50
2022-10-06T05:19:01.798Z,8.89
2022-10-06T05:21:32.278Z,8.82
2022-10-06T05:24:00.327Z,9.62
2022-10-06T05:26:30.233Z,10.05
2022-10-06T05:28:58.634Z,10.48
2022-10-06T05:31:28.457Z,10.78
2022-10-06T05:33:57.352Z,10.05
2022-10-06T05:36:29.812Z,11.25
2022-10-06T05:38:59.195Z,11.36
2022-10-06T05:41:28.930Z,11.75
2022-10-06T05:43:58.275Z,11.68
2022-10-06T05:46:28.668Z,11.51
2022-10-06T05:48:58.814Z,12.10
2022-10-06T05:51:31.276Z,12.20
2022-10-06T05:53:59.668Z,12.17
2022-10-06T05:56:28.945Z,12.32
2022-10-06T05:58:58.105Z,12.49
2022-10-06T06:01:28.429Z,12.89
2022-10-06T06:03:59.528Z,13.09
2022-10-06T06:06:30.311Z,13.26
2022-10-06T06:08:59.978Z,13.41
2022-10-06T06:11:28.706Z,13.71
2022-10-06T06:13:58.473Z,13.94
2022-10-06T06:16:26.203Z,14.04
2022-10-06T06:18:54.077Z,13.87
2022-10-06T06:21:22.337Z,14.29
2022-10-06T06:23:51.783Z,14.39
2022-10-06T06:26:23.526Z,14.72
2022-10-06T06:28:51.992Z,14.91
2022-10-06T06:31:22.152Z,14.51
2022-10-06T06:33:52.642Z,14.21
2022-10-06T06:36:22.145Z,13.90
2022-10-06T06:38:52.988Z,14.25
2022-10-06T06:41:22.695Z,14.19
2022-10-06T06:43:52.901Z,14.14
2022-10-06T06:46:25.141Z,13.78
2022-10-06T06:48:53.865Z,14.42
2022-10-06T06:51:23.039Z,14.78
2022-10-06T06:53:52.950Z,14.97
2022-10-06T06:56:22.373Z,14.97
2022-10-06T06:58:50.612Z,14.87
2022-10-06T07:01:20.828Z,15.09
2022-10-06T07:03:58.381Z,15.30
2022-10-06T07:06:29.407Z,15.36
2022-10-06T07:09:00.063Z,15.08
2022-10-06T07:11:29.947Z,14.86
2022-10-06T07:14:01.124Z,14.97
2022-10-06T07:16:48.436Z,15.35
2022-10-06T07:19:35.022Z,15.86
2022-10-06T07:22:23.811Z,15.80
2022-10-06T07:25:11.719Z,16.02
2022-10-06T07:27:43.115Z,16.31
2022-10-06T07:30:12.995Z,16.13
2022-10-06T07:32:40.821Z,15.68
2022-10-06T07:35:09.324Z,16.55
2022-10-06T07:37:37.290Z,16.46
2022-10-06T07:40:09.139Z,15.81
2022-10-06T07:42:48.400Z,15.83
2022-10-06T07:45:36.354Z,16.20
2022-10-06T07:48:05.353Z,15.62
2022-10-06T07:50:33.711Z,17.07
2022-10-06T07:53:05.015Z,17.06
2022-10-06T07:55:34.584Z,17.16
2022-10-06T07:58:02.511Z,17.33
2022-10-06T08:00:30.416Z,17.07
2022-10-06T08:02:58.362Z,17.01
2022-10-06T08:05:26.243Z,17.13
2022-10-06T08:07:56.391Z,17.97
2022-10-06T08:10:24.223Z,18.27
2022-10-06T08:12:53.483Z,18.40
2022-10-06T08:15:21.369Z,18.14
2022-10-06T08:17:49.253Z,18.22
2022-10-06T08:20:18.422Z,17.75
2022-10-06T08:22:49.017Z,17.72
2022-10-06T08:25:17.173Z,18.39
2022-10-06T08:27:45.122Z,18.45
2022-10-06T08:30:14.817Z,18.50
2022-10-06T08:32:43.434Z,18.74
2022-10-06T08:35:11.834Z,19.27
2022-10-06T08:37:39.662Z,18.90
2022-10-06T08:40:08.600Z,18.46
2022-10-06T08:42:41.423Z,18.80
2022-10-06T08:45:16.440Z,19.14
2022-10-06T08:47:53.320Z,18.84
2022-10-06T08:50:22.422Z,19.35
2022-10-06T08:53:00.851Z,19.82
2022-10-06T08:55:39.009Z,19.77
2022-10-06T08:58:38.404Z,20.00
2022-10-06T09:01:18.732Z,19.61
2022-10-06T09:03:49.396Z,20.22
2022-10-06T09:06:42.192Z,19.81
2022-10-06T09:09:22.372Z,20.20
2022-10-06T09:12:01.079Z,20.54
2022-10-06T09:14:34.783Z,19.88
2022-10-06T09:17:10.837Z,20.06
2022-10-06T09:19:45.371Z,20.08
2022-10-06T09:22:20.726Z,20.82
2022-10-06T09:24:50.645Z,20.83
2022-10-06T09:27:21.710Z,20.64
2022-10-06T09:29:49.980Z,20.53
2022-10-06T09:32:20.909Z,20.66
2022-10-06T09:34:52.413Z,21.49
2022-10-06T09:37:20.702Z,21.44
2022-10-06T09:39:50.956Z,20.97
2022-10-06T09:42:22.146Z,21.30
2022-10-06T09:45:03.960Z,21.73
2022-10-06T09:47:45.629Z,21.04
2022-10-06T09:50:22.729Z,21.30
2022-10-06T09:53:11.453Z,21.69
2022-10-06T09:55:54.897Z,20.96
2022-10-06T09:58:31.431Z,21.27
2022-10-06T10:01:01.242Z,21.45
2022-10-06T10:04:02.059Z,21.98
2022-10-06T10:06:35.603Z,22.42
2022-10-06T10:09:25.745Z,22.52
2022-10-06T10:12:31.210Z,22.80
2022-10-06T10:15:02.421Z,22.84
2022-10-06T10:17:39.118Z,22.21
2022-10-06T10:20:34.069Z,21.67
2022-10-06T10:23:05.984Z,21.91
2022-10-06T10:25:44.448Z,22.74
2022-10-06T10:28:29.458Z,22.77
2022-10-06T10:31:04.511Z,22.65
2022-10-06T10:33:49.605Z,22.87
2022-10-06T10:36:34.374Z,22.60
2022-10-06T10:39:02.883Z,22.55
2022-10-06T10:41:46.815Z,22.53
2022-10-06T10:44:25.466Z,22.68
2022-10-06T10:46:57.125Z,22.30
2022-10-06T10:49:29.875Z,22.84
2022-10-06T10:52:04.654Z,22.56
2022-10-06T10:54:39.516Z,22.65
2022-10-06T10:57:14.971Z,23.09
2022-10-06T10:59:57.345Z,23.04
2022-10-06T11:02:25.954Z,23.39
2022-10-06T11:04:57.721Z,23.58
2022-10-06T11:07:34.082Z,23.15
2022-10-06T11:10:13.424Z,23.06
2022-10-06T11:12:58.405Z,23.23
2022-10-06T11:15:38.935Z,23.36
2022-10-06T11:18:20.716Z,23.89
2022-10-06T11:20:54.313Z,23.76
2022-10-06T11:23:45.449Z,23.63
2022-10-06T11:26:25.952Z,23.27
2022-10-06T11:29:01.778Z,23.50
2022-10-06T11:31:36.700Z,23.04
2022-10-06T11:34:06.523Z,23.43
2022-10-06T11:36:44.609Z,23.62
2022-10-06T11:39:22.749Z,23.93
2022-10-06T11:41:55.955Z,24.28
2022-10-06T11:44:33.584Z,24.30
2022-10-06T11:47:06.621Z,24.48
2022-10-06T11:49:56.119Z,23.99
2022-10-06T11:52:45.496Z,23.60
2022-10-06T11:55:24.026Z,23.68
2022-10-06T12:01:04.245Z,24.28
2022-10-06T12:03:47.348Z,24.57
2022-10-06T12:06:52.676Z,24.51
2022-10-06T12:09:32.105Z,24.17
2022-10-06T12:12:03.394Z,23.16
2022-10-06T12:17:39.759Z,23.73
2022-10-06T12:20:18.645Z,24.13
2022-10-06T12:22:52.114Z,23.72
2022-10-06T12:25:26.799Z,23.26
2022-10-06T12:28:10.906Z,22.99
2022-10-06T12:30:57.267Z,22.98
2022-10-06T12:33:38.656Z,22.88
2022-10-06T12:36:19.015Z,23.10
2022-10-06T12:39:05.318Z,23.00
2022-10-06T12:41:55.325Z,23.83
2022-10-06T12:44:27.863Z,23.58
2022-10-06T12:46:58.828Z,23.19
2022-10-06T12:49:47.075Z,23.33
2022-10-06T12:52:40.561Z,23.31
2022-10-06T12:55:32.170Z,23.09
2022-10-06T12:58:01.247Z,23.09
2022-10-06T13:00:37.753Z,23.09
2022-10-06T13:03:09.804Z,23.09
2022-10-06T13:05:38.027Z,22.96
2022-10-06T13:08:07.448Z,23.14
2022-10-06T13:10:35.559Z,22.88
2022-10-06T13:13:03.572Z,22.65
2022-10-06T13:15:35.848Z,22.38
2022-10-06T13:18:12.903Z,22.02
2022-10-06T13:20:42.739Z,22.46
2022-10-06T13:23:24.399Z,22.60
2022-10-06T13:25:56.805Z,22.40
2022-10-06T13:28:49.588Z,22.18
2022-10-06T13:31:24.662Z,22.37
2022-10-06T13:33:56.864Z,22.00
2022-10-06T13:36:25.452Z,22.29
2022-10-06T13:38:53.433Z,22.22
2022-10-06T13:41:28.884Z,22.03
2022-10-06T13:44:00.100Z,21.97
2022-10-06T13:46:32.564Z,21.99
2022-10-06T13:49:04.003Z,22.01
2022-10-06T13:51:33.607Z,21.92
2022-10-06T13:54:05.132Z,21.90
2022-10-06T13:56:39.042Z,21.84
2022-10-06T13:59:29.837Z,21.70
2022-10-06T14:02:02.470Z,21.67
2022-10-06T14:04:34.593Z,21.78
2022-10-06T14:07:05.388Z,21.81
2022-10-06T14:09:34.897Z,21.62
2022-10-06T14:12:06.272Z,21.72
2022-10-06T14:14:34.740Z,21.64
2022-10-06T14:17:04.095Z,21.59
2022-10-06T14:19:34.847Z,21.55
2022-10-06T14:22:04.387Z,21.51
2022-10-06T14:24:34.274Z,21.47
2022-10-06T14:27:04.029Z,21.41
2022-10-06T14:29:34.197Z,21.32
2022-10-06T14:32:11.195Z,21.27
2022-10-06T14:34:39.015Z,21.13
2022-10-06T14:37:06.817Z,21.15
2022-10-06T14:42:02.232Z,21.19
2022-10-06T14:44:30.060Z,20.88
2022-10-06T14:46:58.413Z,21.11
2022-10-06T14:49:27.676Z,21.02
2022-10-06T14:51:56.831Z,20.90
2022-10-06T14:54:25.233Z,20.92
2022-10-06T14:56:53.487Z,20.90
2022-10-06T14:59:22.507Z,20.81
2022-10-06T15:01:50.614Z,20.68
2022-10-06T15:04:20.357Z,20.55
2022-10-06T15:07:07.319Z,20.45
2022-10-06T15:09:35.740Z,20.32
2022-10-06T15:12:04.082Z,20.27
2022-10-06T15:14:32.125Z,20.03
2022-10-06T15:17:00.421Z,20.21
2022-10-06T15:19:28.760Z,20.11
2022-10-06T15:21:57.977Z,20.12
2022-10-06T15:24:25.804Z,20.03
2022-10-06T15:27:11.216Z,19.93
2022-10-06T15:29:39.080Z,19.84
2022-10-06T15:32:07.222Z,19.77
2022-10-06T15:34:37.010Z,19.66
2022-10-06T15:37:06.784Z,19.57
2022-10-06T15:39:37.052Z,19.33
2022-10-06T15:42:05.711Z,19.03
2022-10-06T15:44:34.944Z,19.00
2022-10-06T15:47:03.104Z,18.78
2022-10-06T15:49:32.776Z,18.80
2022-10-06T15:52:03.023Z,18.45
2022-10-06T15:54:37.457Z,18.59
2022-10-06T15:57:08.466Z,18.58
2022-10-06T15:59:37.187Z,18.33
2022-10-06T16:02:07.589Z,18.40
2022-10-06T16:04:48.908Z,18.35
2022-10-06T16:07:18.542Z,18.26
2022-10-06T16:09:49.285Z,18.01
2022-10-06T16:12:19.433Z,18.15
2022-10-06T16:14:47.553Z,18.04
2022-10-06T16:17:16.063Z,17.93
2022-10-06T16:19:43.881Z,17.65
2022-10-06T16:22:14.175Z,17.78
2022-10-06T16:24:42.189Z,17.32
2022-10-06T16:27:13.011Z,17.57
2022-10-06T16:29:40.985Z,17.45
2022-10-06T16:32:09.161Z,17.50
2022-10-06T16:34:37.058Z,17.37
2022-10-06T16:37:04.960Z,17.29
2022-10-06T16:39:32.819Z,17.21
2022-10-06T16:42:00.647Z,17.16
2022-10-06T16:44:29.849Z,17.08
2022-10-06T16:46:57.757Z,17.11
2022-10-06T16:49:27.252Z,17.06
2022-10-06T16:51:55.103Z,17.00
2022-10-06T16:54:22.928Z,16.89
2022-10-06T16:56:54.140Z,16.83
2022-10-06T16:59:23.516Z,16.78
2022-10-06T17:01:52.705Z,16.79
2022-10-06T17:04:21.928Z,16.66
2022-10-06T17:06:51.465Z,16.35
2022-10-06T17:09:20.939Z,16.28
2022-10-06T17:11:50.903Z,16.28
2022-10-06T17:14:19.372Z,16.32
2022-10-06T17:16:48.781Z,16.26
2022-10-06T17:19:19.786Z,16.18
2022-10-06T17:21:51.529Z,15.72
2022-10-06T17:24:22.597Z,16.08
2022-10-06T17:26:50.873Z,15.86
2022-10-06T17:29:21.382Z,16.11
2022-10-06T17:31:50.989Z,15.95
2022-10-06T17:34:24.401Z,16.27
2022-10-06T17:36:54.547Z,16.13
2022-10-06T17:39:24.456Z,16.11
2022-10-06T17:41:54.593Z,15.93
2022-10-06T17:44:26.044Z,15.81
2022-10-06T17:46:55.617Z,15.57
2022-10-06T17:49:25.818Z,15.55
2022-10-06T17:51:55.209Z,15.47
2022-10-06T17:54:24.845Z,15.48
2022-10-06T17:56:54.856Z,15.43
2022-10-06T17:59:25.110Z,15.00
2022-10-06T18:01:56.411Z,15.30
2022-10-06T18:04:27.170Z,14.91
2022-10-06T18:06:55.925Z,14.79
2022-10-06T18:09:24.045Z,14.85
2022-10-06T18:11:55.970Z,14.88
2022-10-06T18:14:26.090Z,14.87
2022-10-06T18:16:56.738Z,14.85
2022-10-06T18:19:29.323Z,14.81
2022-10-06T18:21:58.694Z,14.37
2022-10-06T18:24:28.812Z,14.69
2022-10-06T18:26:59.787Z,14.65
2022-10-06T18:29:31.163Z,14.57
2022-10-06T18:32:22.500Z,14.33
2022-10-06T18:37:36.350Z,14.32
2022-10-06T18:40:06.863Z,14.31
2022-10-06T18:42:35.041Z,14.28
2022-10-06T18:45:20.305Z,14.25
2022-10-06T18:48:05.584Z,14.23
2022-10-06T18:50:35.238Z,14.18
2022-10-06T18:53:03.969Z,14.15
2022-10-06T18:55:32.069Z,13.76
2022-10-06T18:58:00.643Z,13.79
2022-10-06T19:00:28.649Z,13.85
2022-10-06T19:02:56.955Z,13.77
2022-10-06T19:05:25.448Z,13.75
2022-10-06T19:07:54.839Z,13.79
2022-10-06T19:10:22.898Z,13.83
2022-10-06T19:12:50.857Z,13.82
2022-10-06T19:15:20.982Z,13.76
2022-10-06T19:17:49.855Z,13.69
2022-10-06T19:20:18.446Z,12.51
2022-10-06T19:22:47.633Z,13.51
2022-10-06T19:25:19.262Z,13.32
2022-10-06T19:27:47.328Z,13.23
2022-10-06T19:30:15.890Z,13.12
2022-10-06T19:32:43.920Z,12.99
2022-10-06T19:35:11.749Z,12.97
2022-10-06T19:37:40.396Z,12.90
2022-10-06T19:40:11.249Z,12.89
2022-10-06T19:42:48.769Z,12.29
2022-10-06T19:45:17.677Z,12.65
2022-10-06T19:47:47.085Z,12.65
2022-10-06T19:50:16.296Z,12.74
2022-10-06T19:52:44.135Z,12.83
2022-10-06T19:55:11.953Z,12.47
2022-10-06T19:57:41.629Z,12.56
2022-10-06T20:00:11.207Z,12.77
2022-10-06T20:02:42.438Z,12.88
2022-10-06T20:05:11.754Z,12.81
2022-10-06T20:07:39.613Z,12.68
2022-10-06T20:10:07.793Z,12.61
2022-10-06T20:12:36.045Z,12.53
2022-10-06T20:15:05.977Z,12.45
2022-10-06T20:17:34.736Z,12.50
2022-10-06T20:20:03.226Z,12.47
2022-10-06T20:22:31.710Z,12.49
2022-10-06T20:25:01.906Z,12.47
2022-10-06T20:27:29.892Z,12.39
2022-10-06T20:29:58.093Z,12.15
2022-10-06T20:32:27.409Z,12.34
2022-10-06T20:34:55.275Z,12.26
2022-10-06T20:37:23.105Z,12.29
2022-10-06T20:40:08.745Z,12.33
2022-10-06T20:42:36.577Z,12.35
2022-10-06T20:45:04.744Z,12.35
2022-10-06T20:47:33.957Z,12.29
2022-10-06T20:50:01.787Z,12.24
2022-10-06T20:52:31.662Z,12.23
2022-10-06T20:54:59.484Z,12.19
2022-10-06T20:57:32.874Z,12.09
2022-10-06T21:00:01.669Z,11.95
2022-10-06T21:02:30.578Z,11.93
2022-10-06T21:05:01.502Z,11.91
2022-10-06T21:07:29.329Z,11.85
2022-10-06T21:09:57.137Z,11.83
2022-10-06T21:12:24.955Z,11.88
2022-10-06T21:14:52.774Z,11.77
2022-10-06T21:17:20.623Z,11.59
2022-10-06T21:19:48.447Z,11.54
2022-10-06T21:22:17.611Z,11.51
2022-10-06T21:24:45.455Z,11.50
2022-10-06T21:27:13.271Z,11.52
2022-10-06T21:29:41.111Z,11.48
2022-10-06T21:32:10.244Z,11.44
2022-10-06T21:34:40.169Z,11.33
2022-10-06T21:37:07.998Z,11.25
2022-10-06T21:39:37.563Z,11.19
2022-10-06T21:42:05.434Z,11.18
2022-10-06T21:44:33.286Z,11.19
2022-10-06T21:47:02.632Z,11.16
2022-10-06T21:49:30.601Z,11.12
2022-10-06T21:52:03.512Z,11.22
2022-10-06T21:54:31.934Z,11.20
2022-10-06T21:57:01.326Z,11.09
2022-10-06T21:59:29.145Z,11.06
2022-10-06T22:01:57.083Z,11.02
2022-10-06T22:04:24.969Z,11.00
2022-10-06T22:06:52.878Z,10.97
2022-10-06T22:09:21.695Z,10.93
2022-10-06T22:11:50.266Z,10.96
2022-10-06T22:14:20.842Z,10.99
2022-10-06T22:16:49.227Z,10.90
2022-10-06T22:19:17.966Z,10.67
2022-10-06T22:21:48.505Z,10.64
2022-10-06T22:24:18.506Z,10.61
2022-10-06T22:26:47.018Z,10.70
2022-10-06T22:29:17.930Z,10.68
2022-10-06T22:31:48.348Z,10.58
2022-10-06T22:34:18.418Z,10.42
2022-10-06T22:36:46.294Z,10.57
2022-10-06T22:39:14.134Z,10.57
2022-10-06T22:41:42.041Z,10.58
2022-10-06T22:44:09.874Z,10.47
2022-10-06T22:46:38.733Z,10.29
2022-10-06T22:49:08.184Z,10.25
2022-10-06T22:51:36.142Z,10.22
2022-10-06T22:54:04.026Z,10.28
2022-10-06T22:56:33.747Z,10.23
2022-10-06T22:59:02.213Z,10.09
2022-10-06T23:01:30.609Z,10.41
2022-10-06T23:03:58.714Z,10.47
2022-10-06T23:06:29.723Z,10.36
2022-10-06T23:08:57.838Z,10.26
2022-10-06T23:11:25.730Z,10.17
2022-10-06T23:13:53.631Z,9.42
2022-10-06T23:16:22.197Z,10.05
2022-10-06T23:18:50.567Z,9.99
2022-10-06T23:21:21.654Z,9.96
2022-10-06T23:23:53.703Z,10.00
2022-10-06T23:26:23.051Z,10.03
2022-10-06T23:28:55.906Z,9.90
2022-10-06T23:31:24.217Z,9.88
2022-10-06T23:33:52.126Z,9.94
2022-10-06T23:36:20.378Z,9.95
2022-10-06T23:38:48.585Z,9.98
2022-10-06T23:41:17.789Z,9.92
2022-10-06T23:43:45.611Z,9.92
2022-10-06T23:46:14.010Z,9.93
2022-10-06T23:48:42.054Z,10.10
2022-10-06T23:51:11.893Z,10.11
2022-10-06T23:53:39.854Z,10.05
2022-10-06T23:56:08.321Z,10.02
2022-10-06T23:58:37.918Z,9.63
